Time;durP1;ratioP1;P1;durP2;ratioP2;P2;SDS_P1;SDS_P2;PMS_P1;PMS_P2;Temp;Humidity;BMP_temperature;BMP_pressure;BME280_temperature;BME280_humidity;BME280_pressure;Samples;Min_cycle;Max_cycle;Signal;HPM_P1;HPM_P2
2024/01/28 00:00:42;;;;;;;23.80;13.23;;;;;;;-144.26;100.00;64884.69;5033133;28;20032;-80
2024/01/28 00:03:08;;;;;;;20.42;13.50;;;;;;;-144.26;100.00;64884.69;5015212;28;20021;-81
2024/01/28 00:05:34;;;;;;;25.30;14.25;;;;;;;-144.26;100.00;64884.69;5033081;28;20033;-80
2024/01/28 00:08:00;;;;;;;24.73;14.25;;;;;;;-144.26;100.00;64884.69;5032837;28;20108;-81
2024/01/28 00:10:26;;;;;;;24.33;14.25;;;;;;;-144.26;100.00;64884.69;5032759;28;20526;-81
2024/01/28 00:12:52;;;;;;;23.55;14.23;;;;;;;-144.26;100.00;64884.69;5032820;28;20073;-80
2024/01/28 00:15:17;;;;;;;23.10;12.98;;;;;;;-144.26;100.00;64884.69;5032845;28;20029;-80
2024/01/28 00:17:43;;;;;;;23.58;14.02;;;;;;;-144.26;100.00;64884.69;5032962;28;20483;-82
2024/01/28 00:20:09;;;;;;;23.58;13.20;;;;;;;-144.26;100.00;64884.69;5014964;28;20025;-81
2024/01/28 00:22:34;;;;;;;17.83;12.35;;;;;;;-144.26;100.00;64884.69;5014907;28;20537;-81
2024/01/28 00:25:00;;;;;;;23.98;13.38;;;;;;;-144.26;100.00;64884.69;5032778;28;20056;-81
2024/01/28 00:27:25;;;;;;;21.60;12.95;;;;;;;-144.26;100.00;64884.69;5032547;28;20100;-78
2024/01/28 00:29:51;;;;;;;25.05;13.40;;;;;;;-144.26;100.00;64884.69;5032511;28;20148;-81
2024/01/28 00:32:16;;;;;;;23.75;14.65;;;;;;;-144.26;100.00;64884.69;5032542;28;20041;-80
2024/01/28 00:34:41;;;;;;;21.73;13.13;;;;;;;-144.26;100.00;64884.69;5032681;28;20029;-83
2024/01/28 00:37:08;;;;;;;23.30;13.40;;;;;;;-144.26;100.00;64884.69;5032466;28;20036;-82
2024/01/28 00:39:35;;;;;;;23.77;13.98;;;;;;;-144.26;100.00;64884.69;5032650;28;20028;-82
2024/01/28 00:42:01;;;;;;;21.98;13.68;;;;;;;-144.26;100.00;64884.69;5032493;28;20127;-83
2024/01/28 00:44:27;;;;;;;22.00;13.48;;;;;;;-144.26;100.00;64884.69;5032593;28;20045;-83
2024/01/28 00:46:55;;;;;;;27.83;13.98;;;;;;;-144.26;100.00;64884.69;5032545;28;20103;-81
2024/01/28 00:49:23;;;;;;;20.25;14.00;;;;;;;-144.26;100.00;64884.69;5032095;28;20029;-81
2024/01/28 00:51:48;;;;;;;22.25;12.85;;;;;;;-144.26;100.00;64884.69;5032318;28;20049;-82
2024/01/28 00:54:15;;;;;;;24.83;14.13;;;;;;;-144.26;100.00;64884.69;5039408;23;20069;-83
2024/01/28 00:56:40;;;;;;;22.52;13.00;;;;;;;-144.26;100.00;64884.69;5032436;28;20017;-82
2024/01/28 00:59:06;;;;;;;25.13;13.63;;;;;;;-144.26;100.00;64884.69;5032109;28;20382;-82
2024/01/28 01:01:31;;;;;;;23.65;13.10;;;;;;;-144.26;100.00;64884.69;5032473;28;20029;-83
2024/01/28 01:03:58;;;;;;;20.70;12.63;;;;;;;-144.26;100.00;64884.69;5032195;28;20424;-81
2024/01/28 01:06:23;;;;;;;20.20;13.20;;;;;;;-144.26;100.00;64884.69;5032244;28;20022;-82
2024/01/28 01:08:48;;;;;;;23.70;14.02;;;;;;;-144.26;100.00;64884.69;5033535;28;20079;-80
2024/01/28 01:11:14;;;;;;;24.10;13.32;;;;;;;-144.26;100.00;64884.69;5036399;28;20053;-80
2024/01/28 01:13:39;;;;;;;20.92;12.60;;;;;;;-144.26;100.00;64884.69;5035866;28;20029;-80
2024/01/28 01:16:06;;;;;;;20.40;12.80;;;;;;;-144.26;100.00;64884.69;5036398;28;20041;-83
2024/01/28 01:18:42;;;;;;;21.25;13.20;;;;;;;-144.26;100.00;64884.69;5033132;28;20112;-83
2024/01/28 01:21:13;;;;;;;18.27;12.32;;;;;;;-144.26;100.00;64884.69;5017756;28;20179;-81
2024/01/28 01:23:42;;;;;;;22.80;13.68;;;;;;;-144.26;100.00;64884.69;5035991;28;20060;-80
2024/01/28 01:26:10;;;;;;;19.88;12.43;;;;;;;-144.26;100.00;64884.69;5035945;28;20487;-80
2024/01/28 01:28:41;;;;;;;23.83;13.70;;;;;;;-144.26;100.00;64884.69;5036254;28;20068;-81
2024/01/28 01:31:17;;;;;;;23.20;13.57;;;;;;;-144.26;100.00;64884.69;5036023;28;20056;-81
2024/01/28 01:33:45;;;;;;;18.58;13.52;;;;;;;-144.26;100.00;64884.69;5036046;28;20022;-81
2024/01/28 01:36:16;;;;;;;20.83;12.98;;;;;;;-144.26;100.00;64884.69;5035848;28;20100;-81
2024/01/28 01:38:44;;;;;;;21.00;12.98;;;;;;;-144.26;100.00;64884.69;5035674;28;20025;-80
2024/01/28 01:41:12;;;;;;;20.17;13.20;;;;;;;-144.26;100.00;64884.69;5035817;28;20033;-80
2024/01/28 01:43:37;;;;;;;17.70;12.32;;;;;;;-144.26;100.00;64884.69;5035688;28;20026;-81
2024/01/28 01:46:12;;;;;;;20.50;12.18;;;;;;;-144.26;100.00;64884.69;5035683;28;20168;-80
2024/01/28 01:48:41;;;;;;;19.90;12.05;;;;;;;-144.26;100.00;64884.69;5035595;28;20030;-81
2024/01/28 01:51:14;;;;;;;19.95;13.23;;;;;;;-144.26;100.00;64884.69;5035434;28;20467;-80
2024/01/28 01:53:40;;;;;;;20.70;12.65;;;;;;;-144.26;100.00;64884.69;5035185;28;20098;-81
2024/01/28 01:56:06;;;;;;;23.88;12.93;;;;;;;-144.26;100.00;64884.69;5035697;28;20404;-82
2024/01/28 01:58:32;;;;;;;20.13;13.23;;;;;;;-144.26;100.00;64884.69;5035610;28;20021;-81
2024/01/28 02:00:59;;;;;;;26.13;12.35;;;;;;;-144.26;100.00;64884.69;5035277;28;20056;-82
2024/01/28 02:03:26;;;;;;;21.73;12.88;;;;;;;-144.26;100.00;64884.69;5035712;28;20128;-81
2024/01/28 02:05:52;;;;;;;19.63;12.98;;;;;;;-144.26;100.00;64884.69;5035346;28;20422;-81
2024/01/28 02:08:17;;;;;;;22.95;13.30;;;;;;;-144.26;100.00;64884.69;5017023;28;20133;-82
2024/01/28 02:10:43;;;;;;;18.88;13.02;;;;;;;-144.26;100.00;64884.69;5035359;28;20458;-81
2024/01/28 02:13:08;;;;;;;21.23;12.20;;;;;;;-144.26;100.00;64884.69;5016592;28;20088;-82
2024/01/28 02:15:37;;;;;;;19.77;14.60;;;;;;;-144.26;100.00;64884.69;5035151;28;20022;-82
2024/01/28 02:18:03;;;;;;;23.63;14.02;;;;;;;-144.26;100.00;64884.69;5035282;28;20044;-83
2024/01/28 02:20:28;;;;;;;23.15;13.95;;;;;;;-144.26;100.00;64884.69;5034802;28;20025;-82
2024/01/28 02:22:54;;;;;;;24.17;14.15;;;;;;;-144.26;100.00;64884.69;5034828;28;20075;-82
2024/01/28 02:25:19;;;;;;;23.75;14.23;;;;;;;-144.26;100.00;64884.69;5035112;28;20393;-82
2024/01/28 02:27:46;;;;;;;20.85;13.65;;;;;;;-144.26;100.00;64884.69;5034992;28;20362;-82
2024/01/28 02:30:12;;;;;;;20.00;14.05;;;;;;;-144.26;100.00;64884.69;5034815;28;20025;-82
2024/01/28 02:32:54;;;;;;;25.23;14.57;;;;;;;-144.26;100.00;64884.69;5034676;28;20022;-81
2024/01/28 02:35:19;;;;;;;21.00;14.15;;;;;;;-144.26;100.00;64884.69;5034590;28;20029;-82
2024/01/28 02:37:45;;;;;;;21.80;13.55;;;;;;;-144.26;100.00;64884.69;5034738;28;20489;-81
2024/01/28 02:40:11;;;;;;;20.88;13.13;;;;;;;-144.26;100.00;64884.69;5034722;28;20018;-81
2024/01/28 02:42:37;;;;;;;20.58;13.40;;;;;;;-144.26;100.00;64884.69;5034679;28;20109;-82
2024/01/28 02:45:02;;;;;;;20.33;14.50;;;;;;;-144.26;100.00;64884.69;5016873;28;20365;-81
2024/01/28 02:47:28;;;;;;;21.75;13.70;;;;;;;-144.26;100.00;64884.69;5016964;28;20029;-81
2024/01/28 02:49:53;;;;;;;18.38;13.68;;;;;;;-144.26;100.00;64884.69;5034529;28;20025;-81
2024/01/28 02:52:19;;;;;;;21.15;13.20;;;;;;;-144.26;100.00;64884.69;5034030;28;20174;-81
2024/01/28 02:54:44;;;;;;;18.00;12.60;;;;;;;-144.26;100.00;64884.69;5034734;28;20034;-81
2024/01/28 02:57:12;;;;;;;22.33;12.27;;;;;;;-144.26;100.00;64884.69;5034222;28;20021;-80
2024/01/28 02:59:37;;;;;;;20.70;12.95;;;;;;;-144.26;100.00;64884.69;5034612;28;20219;-79
2024/01/28 03:02:03;;;;;;;19.23;12.80;;;;;;;-144.26;100.00;64884.69;5034374;28;20120;-81
2024/01/28 03:04:28;;;;;;;19.35;12.75;;;;;;;-144.26;100.00;64884.69;5034268;28;20064;-81
2024/01/28 03:06:53;;;;;;;20.33;12.27;;;;;;;-144.26;100.00;64884.69;5033896;28;20498;-81
2024/01/28 03:09:19;;;;;;;24.40;13.05;;;;;;;-144.26;100.00;64884.69;5033936;28;20079;-81
2024/01/28 03:11:45;;;;;;;21.20;13.60;;;;;;;-144.26;100.00;64884.69;5034353;28;20075;-81
2024/01/28 03:14:13;;;;;;;23.00;12.93;;;;;;;-144.26;100.00;64884.69;5015934;28;20404;-81
2024/01/28 03:16:39;;;;;;;18.70;13.35;;;;;;;-144.26;100.00;64884.69;5034033;28;20116;-81
2024/01/28 03:19:04;;;;;;;22.15;13.45;;;;;;;-144.26;100.00;64884.69;5034092;28;20101;-81
2024/01/28 03:21:30;;;;;;;18.90;12.85;;;;;;;-144.26;100.00;64884.69;5033798;28;20049;-82
2024/01/28 03:23:56;;;;;;;20.80;12.93;;;;;;;-144.26;100.00;64884.69;5033594;28;20068;-82
2024/01/28 03:26:21;;;;;;;23.98;13.82;;;;;;;-144.26;100.00;64884.69;5016031;28;20038;-81
2024/01/28 03:28:47;;;;;;;17.70;12.32;;;;;;;-144.26;100.00;64884.69;5033647;28;20033;-81
2024/01/28 03:31:12;;;;;;;19.88;13.15;;;;;;;-144.26;100.00;64884.69;5033347;28;20155;-81
2024/01/28 03:33:37;;;;;;;22.92;13.77;;;;;;;-144.26;100.00;64884.69;5033653;28;20033;-81
2024/01/28 03:36:03;;;;;;;18.85;12.70;;;;;;;-144.26;100.00;64884.69;5033566;28;20119;-81
2024/01/28 03:38:28;;;;;;;21.50;13.50;;;;;;;-144.26;100.00;64884.69;5033281;28;20036;-81
2024/01/28 03:40:54;;;;;;;22.85;14.88;;;;;;;-144.26;100.00;64884.69;5033878;28;20021;-81
2024/01/28 03:43:19;;;;;;;20.83;14.27;;;;;;;-144.26;100.00;64884.69;5033585;28;20029;-81
2024/01/28 03:45:44;;;;;;;18.65;13.43;;;;;;;-144.26;100.00;64884.69;5015668;28;20045;-81
2024/01/28 03:48:09;;;;;;;22.60;14.70;;;;;;;-144.26;100.00;64884.69;5033540;28;20029;-81
2024/01/28 03:50:35;;;;;;;23.10;14.40;;;;;;;-144.26;100.00;64884.69;5032386;28;20044;-81
2024/01/28 03:53:00;;;;;;;22.38;14.40;;;;;;;-144.26;100.00;64884.69;5032773;28;20049;-81
2024/01/28 03:55:26;;;;;;;27.73;15.07;;;;;;;-144.26;100.00;64884.69;5033085;28;20465;-80
2024/01/28 03:57:51;;;;;;;22.83;13.45;;;;;;;-144.26;100.00;64884.69;5033427;28;20025;-81
2024/01/28 04:00:18;;;;;;;22.25;14.18;;;;;;;-144.26;100.00;64884.69;5033595;28;20030;-80
2024/01/28 04:02:44;;;;;;;21.55;13.63;;;;;;;-144.26;100.00;64884.69;5033328;28;20461;-82
2024/01/28 04:05:09;;;;;;;24.58;14.15;;;;;;;-144.26;100.00;64884.69;5033138;28;20022;-81
2024/01/28 04:07:35;;;;;;;23.45;14.02;;;;;;;-144.26;100.00;64884.69;5032993;28;20082;-81
2024/01/28 04:10:00;;;;;;;22.10;12.93;;;;;;;-144.26;100.00;64884.69;5032973;28;20029;-81
2024/01/28 04:12:25;;;;;;;24.27;14.45;;;;;;;-144.26;100.00;64884.69;5033256;28;20487;-81
2024/01/28 04:14:51;;;;;;;20.33;13.00;;;;;;;-144.26;100.00;64884.69;5032969;28;20029;-81
2024/01/28 04:17:16;;;;;;;19.10;13.40;;;;;;;-144.26;100.00;64884.69;5033106;28;20021;-82
2024/01/28 04:19:41;;;;;;;22.65;13.32;;;;;;;-144.26;100.00;64884.69;5032865;28;20155;-82
2024/01/28 04:22:09;;;;;;;18.88;13.80;;;;;;;-144.26;100.00;64884.69;5032834;28;20577;-82
2024/01/28 04:24:34;;;;;;;19.52;13.23;;;;;;;-144.26;100.00;64884.69;5032778;28;20033;-82
2024/01/28 04:27:00;;;;;;;19.30;12.75;;;;;;;-144.26;100.00;64884.69;5032595;28;20531;-81
2024/01/28 04:29:25;;;;;;;21.42;13.85;;;;;;;-144.26;100.00;64884.69;5032737;28;20052;-81
2024/01/28 04:31:50;;;;;;;21.33;12.38;;;;;;;-144.26;100.00;64884.69;5032558;28;20469;-81
2024/01/28 04:34:16;;;;;;;23.98;13.68;;;;;;;-144.26;100.00;64884.69;5032500;28;20076;-81
2024/01/28 04:36:41;;;;;;;21.50;15.07;;;;;;;-144.26;100.00;64884.69;5032796;28;20030;-81
2024/01/28 04:39:07;;;;;;;22.10;14.32;;;;;;;-144.26;100.00;64884.69;5032418;28;20037;-81
2024/01/28 04:41:33;;;;;;;20.80;13.70;;;;;;;-144.26;100.00;64884.69;5032458;28;20102;-80
2024/01/28 04:43:58;;;;;;;20.08;13.48;;;;;;;-144.26;100.00;64884.69;5031917;28;20033;-81
2024/01/28 04:46:23;;;;;;;21.88;12.90;;;;;;;-144.26;100.00;64884.69;5032705;28;20465;-80
2024/01/28 04:48:49;;;;;;;25.88;13.45;;;;;;;-144.26;100.00;64884.69;5032320;28;20496;-81
2024/01/28 04:51:14;;;;;;;20.58;12.75;;;;;;;-144.26;100.00;64884.69;5032711;28;20087;-81
2024/01/28 04:53:39;;;;;;;21.25;12.85;;;;;;;-144.26;100.00;64884.69;5032041;28;20513;-81
2024/01/28 04:56:05;;;;;;;20.90;13.60;;;;;;;-144.26;100.00;64884.69;5032395;28;20029;-82
2024/01/28 04:58:30;;;;;;;21.00;13.60;;;;;;;-144.26;100.00;64884.69;5032449;28;20374;-81
2024/01/28 05:00:56;;;;;;;17.63;13.45;;;;;;;-144.26;100.00;64884.69;5032317;28;20068;-81
2024/01/28 05:03:21;;;;;;;25.13;15.05;;;;;;;-144.26;100.00;64884.69;5032253;28;20033;-81
2024/01/28 05:05:46;;;;;;;24.92;14.32;;;;;;;-144.26;100.00;64884.69;5032371;28;20025;-81
2024/01/28 05:08:12;;;;;;;27.05;15.05;;;;;;;-144.26;100.00;64884.69;5032034;28;20022;-81
2024/01/28 05:10:38;;;;;;;21.60;14.20;;;;;;;-144.26;100.00;64884.69;5032252;28;20025;-81
2024/01/28 05:13:04;;;;;;;21.65;13.65;;;;;;;-144.26;100.00;64884.69;5013718;28;20400;-80
2024/01/28 05:15:29;;;;;;;20.20;12.05;;;;;;;-144.26;100.00;64884.69;5032295;28;20027;-81
2024/01/28 05:17:55;;;;;;;20.85;12.43;;;;;;;-144.26;100.00;64884.69;5031892;28;20140;-81
2024/01/28 05:20:20;;;;;;;21.75;11.95;;;;;;;-144.26;100.00;64884.69;5032095;28;20029;-81
2024/01/28 05:22:45;;;;;;;20.63;11.70;;;;;;;-144.26;100.00;64884.69;5031845;28;20037;-82
2024/01/28 05:25:11;;;;;;;23.83;11.93;;;;;;;-144.26;100.00;64884.69;5031805;28;20104;-82
2024/01/28 05:27:37;;;;;;;19.73;11.20;;;;;;;-144.26;100.00;64884.69;5031763;28;20522;-81
2024/01/28 05:30:03;;;;;;;21.10;11.40;;;;;;;-144.26;100.00;64884.69;4997512;28;20033;-81
2024/01/28 05:32:29;;;;;;;21.60;12.07;;;;;;;-144.26;100.00;64884.69;5031418;28;20121;-81
2024/01/28 05:34:56;;;;;;;19.95;11.13;;;;;;;-144.26;100.00;64884.69;5032020;28;20017;-82
2024/01/28 05:37:21;;;;;;;17.50;11.10;;;;;;;-144.26;100.00;64884.69;5031891;28;20029;-81
2024/01/28 05:39:47;;;;;;;22.35;11.75;;;;;;;-144.26;100.00;64884.69;5031736;28;20094;-82
2024/01/28 05:42:12;;;;;;;18.55;11.57;;;;;;;-144.26;100.00;64884.69;5031873;28;20032;-81
2024/01/28 05:44:37;;;;;;;18.77;11.98;;;;;;;-144.26;100.00;64884.69;5031573;28;20033;-81
2024/01/28 05:47:03;;;;;;;23.65;12.45;;;;;;;-144.26;100.00;64884.69;5031597;28;20036;-82
2024/01/28 05:49:29;;;;;;;19.50;12.88;;;;;;;-144.26;100.00;64884.69;5013823;28;20100;-81
2024/01/28 05:51:54;;;;;;;20.52;11.90;;;;;;;-144.26;100.00;64884.69;5031570;28;20021;-82
2024/01/28 05:54:20;;;;;;;22.92;12.23;;;;;;;-144.26;100.00;64884.69;5031800;28;20050;-81
2024/01/28 05:56:45;;;;;;;26.35;11.50;;;;;;;-144.26;100.00;64884.69;5035433;28;20025;-81
2024/01/28 05:59:10;;;;;;;16.83;10.23;;;;;;;-144.26;100.00;64884.69;5034859;28;20025;-82
2024/01/28 06:01:36;;;;;;;19.17;10.32;;;;;;;-144.26;100.00;64884.69;5035139;28;20028;-81
2024/01/28 06:04:01;;;;;;;17.85;10.23;;;;;;;-144.26;100.00;64884.69;5035002;28;20026;-81
2024/01/28 06:06:26;;;;;;;20.23;11.07;;;;;;;-144.26;100.00;64884.69;5023661;23;20046;-83
2024/01/28 06:08:52;;;;;;;18.35;10.10;;;;;;;-144.26;100.00;64884.69;5016970;28;20087;-81
2024/01/28 06:11:17;;;;;;;18.08;10.23;;;;;;;-144.26;100.00;64884.69;5035182;28;20032;-81
2024/01/28 06:13:42;;;;;;;17.20;10.15;;;;;;;-144.26;100.00;64884.69;5034993;28;20025;-81
2024/01/28 06:16:08;;;;;;;18.70;12.00;;;;;;;-144.26;100.00;64884.69;5016610;28;20037;-82
2024/01/28 06:18:37;;;;;;;19.83;13.52;;;;;;;-144.26;100.00;64884.69;5035105;28;20031;-81
2024/01/28 06:21:02;;;;;;;24.60;13.75;;;;;;;-144.26;100.00;64884.69;5035212;28;20057;-81
2024/01/28 06:23:28;;;;;;;19.45;12.68;;;;;;;-144.26;100.00;64884.69;5034959;28;20105;-82
2024/01/28 06:25:53;;;;;;;27.52;13.75;;;;;;;-144.26;100.00;64884.69;5034878;28;20025;-81
2024/01/28 06:28:18;;;;;;;19.40;12.07;;;;;;;-144.26;100.00;64884.69;5035019;28;20029;-81
2024/01/28 06:30:44;;;;;;;23.02;10.38;;;;;;;-144.26;100.00;64884.69;5034632;28;20422;-81
2024/01/28 06:33:10;;;;;;;20.48;11.45;;;;;;;-144.26;100.00;64884.69;5034735;28;20100;-81
2024/01/28 06:35:38;;;;;;;21.45;11.25;;;;;;;-144.26;100.00;64884.69;5034915;28;20079;-81
2024/01/28 06:38:04;;;;;;;17.92;11.25;;;;;;;-144.26;100.00;64884.69;5034671;28;20108;-80
2024/01/28 06:40:30;;;;;;;19.23;11.32;;;;;;;-144.26;100.00;64884.69;5034591;28;20083;-80
2024/01/28 06:42:59;;;;;;;25.20;11.57;;;;;;;-144.26;100.00;64884.69;5034492;28;20619;-80
2024/01/28 06:45:24;;;;;;;16.77;10.80;;;;;;;-144.26;100.00;64884.69;5034442;28;20422;-78
2024/01/28 06:47:50;;;;;;;18.52;10.35;;;;;;;-144.26;100.00;64884.69;5034590;28;20086;-81
2024/01/28 06:50:16;;;;;;;18.30;10.15;;;;;;;-144.26;100.00;64884.69;5034517;28;20021;-80
2024/01/28 06:52:44;;;;;;;18.67;10.35;;;;;;;-144.26;100.00;64884.69;5034264;28;20037;-80
2024/01/28 06:55:10;;;;;;;19.38;10.15;;;;;;;-144.26;100.00;64884.69;5033748;28;20022;-80
2024/01/28 06:57:35;;;;;;;16.20;10.30;;;;;;;-144.26;100.00;64884.69;5033885;28;20048;-80
2024/01/28 07:00:00;;;;;;;20.42;11.27;;;;;;;-144.26;100.00;64884.69;5034119;28;20025;-81
2024/01/28 07:02:26;;;;;;;21.45;10.63;;;;;;;-144.26;100.00;64884.69;5034162;28;20041;-81
2024/01/28 07:04:51;;;;;;;17.92;11.30;;;;;;;-144.26;100.00;64884.69;5034114;28;20026;-81
2024/01/28 07:07:17;;;;;;;19.48;11.32;;;;;;;-144.26;100.00;64884.69;5033103;28;20053;-80
2024/01/28 07:09:42;;;;;;;20.08;9.90;;;;;;;-144.26;100.00;64884.69;5015788;28;20436;-81
2024/01/28 07:12:08;;;;;;;21.60;11.32;;;;;;;-144.26;100.00;64884.69;5033943;28;20033;-81
2024/01/28 07:14:34;;;;;;;19.55;11.52;;;;;;;-144.26;100.00;64884.69;5033958;28;20025;-80
2024/01/28 07:16:59;;;;;;;22.10;12.18;;;;;;;-144.26;100.00;64884.69;5033772;28;20035;-80
2024/01/28 07:19:25;;;;;;;19.83;12.27;;;;;;;-144.26;100.00;64884.69;5034154;28;20096;-80
2024/01/28 07:21:51;;;;;;;20.25;12.25;;;;;;;-144.26;100.00;64884.69;5033961;28;20091;-80
2024/01/28 07:24:17;;;;;;;19.33;12.60;;;;;;;-144.26;100.00;64884.69;5033877;28;20447;-80
2024/01/28 07:26:43;;;;;;;21.45;12.80;;;;;;;-144.26;100.00;64884.69;5033868;28;20100;-81
2024/01/28 07:29:09;;;;;;;24.52;12.25;;;;;;;-144.26;100.00;64884.69;5033692;28;20124;-80
2024/01/28 07:31:34;;;;;;;20.70;12.00;;;;;;;-144.26;100.00;64884.69;5033646;28;20028;-79
2024/01/28 07:33:59;;;;;;;19.02;12.23;;;;;;;-144.26;100.00;64884.69;5033668;28;20030;-80
2024/01/28 07:36:28;;;;;;;18.92;12.13;;;;;;;-144.26;100.00;64884.69;5033617;28;20037;-80
2024/01/28 07:38:53;;;;;;;19.70;11.88;;;;;;;-144.26;100.00;64884.69;5033660;28;20021;-80
2024/01/28 07:41:18;;;;;;;17.33;11.15;;;;;;;-144.26;100.00;64884.69;5015684;28;20030;-80
2024/01/28 07:43:44;;;;;;;19.13;10.95;;;;;;;-144.26;100.00;64884.69;5033380;28;20052;-80
2024/01/28 07:46:09;;;;;;;17.98;11.93;;;;;;;-144.26;100.00;64884.69;5033378;28;20071;-79
2024/01/28 07:48:35;;;;;;;20.52;11.48;;;;;;;-144.26;100.00;64884.69;5031493;28;20150;-79
2024/01/28 07:51:21;;;;;;;18.65;10.63;;;;;;;-144.26;100.00;64884.69;4991402;28;20406;-76
2024/01/28 07:53:46;;;;;;;18.77;11.68;;;;;;;-144.26;100.00;64884.69;4991599;28;20050;-81
2024/01/28 07:56:12;;;;;;;21.02;10.93;;;;;;;-144.26;100.00;64884.69;4991553;28;20034;-80
2024/01/28 07:58:37;;;;;;;22.55;12.70;;;;;;;-144.26;100.00;64884.69;4991614;28;20170;-79
2024/01/28 08:01:05;;;;;;;20.80;13.07;;;;;;;-144.26;100.00;64884.69;4991317;28;20102;-79
2024/01/28 08:03:30;;;;;;;21.58;13.80;;;;;;;-144.26;100.00;64884.69;4991685;28;20050;-79
2024/01/28 08:05:59;;;;;;;19.27;12.82;;;;;;;-144.26;100.00;64884.69;4991385;28;20069;-80
2024/01/28 08:08:24;;;;;;;21.20;13.40;;;;;;;-144.26;100.00;64884.69;4991393;28;20113;-82
2024/01/28 08:10:49;;;;;;;22.45;14.13;;;;;;;-144.26;100.00;64884.69;4991444;28;20125;-82
2024/01/28 08:13:15;;;;;;;19.52;12.82;;;;;;;-144.26;100.00;64884.69;4974833;28;20041;-82
2024/01/28 08:15:40;;;;;;;18.85;13.38;;;;;;;-144.26;100.00;64884.69;4991194;28;20034;-82
2024/01/28 08:18:06;;;;;;;21.70;14.45;;;;;;;-144.26;100.00;64884.69;4990856;28;20481;-83
2024/01/28 08:20:31;;;;;;;24.90;14.90;;;;;;;-144.26;100.00;64884.69;4991387;28;20057;-84
2024/01/28 08:22:59;;;;;;;24.83;14.55;;;;;;;-144.26;100.00;64884.69;4975023;28;20026;-83
2024/01/28 08:25:31;;;;;;;22.95;15.50;;;;;;;-144.26;100.00;64884.69;4990985;28;20034;-83
2024/01/28 08:27:56;;;;;;;28.35;19.52;;;;;;;-144.26;100.00;64884.69;5003492;28;20374;-84
2024/01/28 08:30:25;;;;;;;23.88;16.40;;;;;;;-144.26;100.00;64884.69;5001659;23;20062;-86
2024/01/28 08:32:53;;;;;;;23.80;16.98;;;;;;;-144.26;100.00;64884.69;5008118;23;20060;-85
2024/01/28 08:37:51;;;;;;;24.40;17.27;;;;;;;-144.26;100.00;64884.69;5031587;23;20056;-84
2024/01/28 08:40:19;;;;;;;25.15;17.50;;;;;;;-144.26;100.00;64884.69;5032303;28;20030;-85
2024/01/28 08:42:54;;;;;;;29.55;17.55;;;;;;;-144.26;100.00;64884.69;5039452;23;20057;-83
2024/01/28 08:45:19;;;;;;;29.13;17.65;;;;;;;-144.26;100.00;64884.69;5029182;28;20044;-82
2024/01/28 08:50:32;;;;;;;25.02;15.85;;;;;;;-144.26;100.00;64884.69;5159740;23;20050;-81
2024/01/28 08:52:57;;;;;;;19.98;15.30;;;;;;;-144.26;100.00;64884.69;5012547;28;20061;-83
2024/01/28 08:55:25;;;;;;;28.40;15.73;;;;;;;-144.26;100.00;64884.69;5093522;23;20615;-81
2024/01/28 08:57:51;;;;;;;26.65;15.35;;;;;;;-144.26;100.00;64884.69;5031951;28;20433;-83
2024/01/28 09:00:22;;;;;;;22.13;16.35;;;;;;;-144.26;100.00;64884.69;5031888;28;20026;-85
2024/01/28 09:02:48;;;;;;;25.48;15.20;;;;;;;-144.26;100.00;64884.69;5066793;23;20121;-83
2024/01/28 09:07:42;;;;;;;23.92;14.93;;;;;;;-144.26;100.00;64884.69;5318483;23;20109;-80
2024/01/28 09:10:07;;;;;;;23.17;14.88;;;;;;;-144.26;100.00;64884.69;4992501;28;20042;-79
2024/01/28 09:12:34;;;;;;;26.15;14.63;;;;;;;-144.26;100.00;64884.69;4992480;28;20041;-80
2024/01/28 09:15:00;;;;;;;25.90;13.70;;;;;;;-144.26;100.00;64884.69;4992467;28;20427;-80
2024/01/28 09:17:25;;;;;;;20.92;13.05;;;;;;;-144.26;100.00;64884.69;4992764;28;20050;-84
2024/01/28 09:19:50;;;;;;;19.40;12.98;;;;;;;-144.26;100.00;64884.69;4975177;28;20035;-84
2024/01/28 09:22:16;;;;;;;18.10;13.15;;;;;;;-144.26;100.00;64884.69;4992644;28;20132;-83
2024/01/28 09:24:50;;;;;;;23.80;12.73;;;;;;;-144.26;100.00;64884.69;4992548;28;20432;-83
2024/01/28 09:27:17;;;;;;;21.13;13.68;;;;;;;-144.26;100.00;64884.69;4992201;28;20030;-83
2024/01/28 09:29:54;;;;;;;22.38;13.85;;;;;;;-144.26;100.00;64884.69;4993371;28;20034;-83
2024/01/28 09:32:26;;;;;;;21.33;12.95;;;;;;;-144.26;100.00;64884.69;4996514;28;20077;-84
2024/01/28 09:34:51;;;;;;;20.85;13.05;;;;;;;-144.26;100.00;64884.69;4996365;28;20466;-83
2024/01/28 09:37:26;;;;;;;18.48;12.90;;;;;;;-144.26;100.00;64884.69;4978572;28;20103;-83
2024/01/28 09:39:51;;;;;;;24.70;12.55;;;;;;;-144.26;100.00;64884.69;4996213;28;20045;-84
2024/01/28 09:42:39;;;;;;;18.10;11.02;;;;;;;-144.26;100.00;64884.69;4995861;28;20030;-84
2024/01/28 09:45:17;;;;;;;16.70;12.75;;;;;;;-144.26;100.00;64884.69;4996380;28;20106;-83
2024/01/28 09:47:43;;;;;;;19.95;11.50;;;;;;;-144.26;100.00;64884.69;4996329;28;20493;-83
2024/01/28 09:52:55;;;;;;;17.85;11.48;;;;;;;-144.26;100.00;64884.69;5046457;23;20061;-84
2024/01/28 09:55:20;;;;;;;18.55;10.88;;;;;;;-144.26;100.00;64884.69;5035417;28;20029;-84
2024/01/28 09:58:02;;;;;;;20.10;10.98;;;;;;;-144.26;100.00;64884.69;5035162;28;20099;-83
2024/01/28 10:00:41;;;;;;;;;;;;;;;-144.26;100.00;64884.69;5035880;28;20026;-84
2024/01/28 10:03:06;;;;;;;19.60;11.00;;;;;;;-144.26;100.00;64884.69;5035357;28;19963;-84
2024/01/28 10:05:32;;;;;;;15.40;10.23;;;;;;;-144.26;100.00;64884.69;5035200;28;20056;-83
2024/01/28 10:08:14;;;;;;;20.73;10.57;;;;;;;-144.26;100.00;64884.69;5035210;28;20028;-82
2024/01/28 10:10:42;;;;;;;18.10;10.82;;;;;;;-144.26;100.00;64884.69;5024191;23;20057;-81
2024/01/28 10:13:08;;;;;;;15.43;10.23;;;;;;;-144.26;100.00;64884.69;5017155;28;20091;-82
2024/01/28 10:15:33;;;;;;;16.35;9.52;;;;;;;-144.26;100.00;64884.69;5034992;28;20485;-81
2024/01/28 10:18:00;;;;;;;19.30;10.07;;;;;;;-144.26;100.00;64884.69;5035282;28;20030;-83
2024/01/28 10:20:28;;;;;;;16.38;11.23;;;;;;;-144.26;100.00;64884.69;5034956;28;20037;-83
2024/01/28 10:22:54;;;;;;;15.10;10.43;;;;;;;-144.26;100.00;64884.69;5034948;28;20087;-85
2024/01/28 10:25:22;;;;;;;16.60;10.07;;;;;;;-144.26;100.00;64884.69;5034927;28;20025;-82
2024/01/28 10:27:48;;;;;;;19.58;10.70;;;;;;;-144.26;100.00;64884.69;5034870;28;20577;-84
2024/01/28 10:30:15;;;;;;;23.05;11.38;;;;;;;-144.26;100.00;64884.69;5016495;28;20113;-82
2024/01/28 10:32:42;;;;;;;16.63;10.65;;;;;;;-144.26;100.00;64884.69;5034584;28;20072;-81
2024/01/28 10:35:09;;;;;;;17.63;10.32;;;;;;;-144.26;100.00;64884.69;5034858;28;20029;-78
2024/01/28 10:37:35;;;;;;;15.35;10.65;;;;;;;-144.26;100.00;64884.69;5033964;28;20041;-83
2024/01/28 10:40:05;;;;;;;14.98;9.60;;;;;;;-144.26;100.00;64884.69;5034436;28;20048;-80
2024/01/28 10:42:39;;;;;;;12.93;8.85;;;;;;;-144.26;100.00;64884.69;5016884;28;20033;-83
2024/01/28 10:45:18;;;;;;;15.57;9.65;;;;;;;-144.26;100.00;64884.69;5034278;28;20568;-84
2024/01/28 10:47:55;;;;;;;17.08;9.82;;;;;;;-144.26;100.00;64884.69;5034495;28;20508;-83
2024/01/28 10:50:41;;;;;;;15.13;8.65;;;;;;;-144.26;100.00;64884.69;5016281;28;20124;-85
2024/01/28 10:53:08;;;;;;;15.10;8.82;;;;;;;-144.26;100.00;64884.69;5033822;28;20045;-80
2024/01/28 10:55:34;;;;;;;16.25;8.82;;;;;;;-144.26;100.00;64884.69;5034315;28;20100;-78
2024/01/28 10:58:02;;;;;;;14.45;7.97;;;;;;;-144.26;100.00;64884.69;5033384;28;20104;-82
2024/01/28 11:00:28;;;;;;;15.35;9.15;;;;;;;-144.26;100.00;64884.69;5035457;28;20033;-82
2024/01/28 11:02:58;;;;;;;19.25;11.88;;;;;;;-144.26;100.00;64884.69;5034690;28;20068;-82